Terminal Aerodrome Forecast
Issued by NWS Buffalo, NY

Home | Current Version | Previous Version | Text Only | Print | Product List | Glossary On
Versions: 1 2 3 4 5 6 7 8 9 10 11 12 13 14 15 16 17 18 19 20 21 22 23 24
000
FTUS41 KBUF 012107 AAE
TAFBUF
TAF AMD
KBUF 012107Z 0121/0218 34006KT P6SM BKN008 OVC012
     FM020400 02005KT P6SM BKN015
     FM020700 03004KT P6SM VCSH OVC015
     FM021000 03005KT 6SM -SHRA OVC007=

USA.gov is the U.S. government's official web portal to all federal, state and local government web resources and services.